createdAt,value
2022-12-22T00:00:28.976Z,3.73
2022-12-22T00:05:49.796Z,3.70
2022-12-22T00:11:11.044Z,4.20
2022-12-22T00:16:33.369Z,4.87
2022-12-22T00:21:54.063Z,4.33
2022-12-22T00:27:15.128Z,5.20
2022-12-22T00:32:37.754Z,5.67
2022-12-22T00:37:58.843Z,5.40
2022-12-22T00:43:20.765Z,5.90
2022-12-22T00:48:44.407Z,6.40
2022-12-22T00:54:05.293Z,6.57
2022-12-22T00:59:28.659Z,6.87
2022-12-22T01:04:52.269Z,7.47
2022-12-22T01:10:13.145Z,5.73
2022-12-22T01:15:35.608Z,7.97
2022-12-22T01:20:58.057Z,7.53
2022-12-22T01:26:19.003Z,7.40
2022-12-22T01:31:44.833Z,7.80
2022-12-22T01:37:06.841Z,7.83
2022-12-22T01:42:29.759Z,9.33
2022-12-22T01:47:52.053Z,8.87
2022-12-22T01:53:19.678Z,8.83
2022-12-22T01:58:48.762Z,9.97
2022-12-22T02:04:09.727Z,9.17
2022-12-22T02:09:42.755Z,10.63
2022-12-22T02:15:05.765Z,10.07
2022-12-22T02:20:46.262Z,9.47
2022-12-22T02:26:12.737Z,10.37
2022-12-22T02:31:34.808Z,9.17
2022-12-22T02:37:00.986Z,8.83
2022-12-22T02:42:27.507Z,9.50
2022-12-22T02:47:53.853Z,9.53
2022-12-22T02:53:17.481Z,9.67
2022-12-22T02:58:43.127Z,10.20
2022-12-22T03:04:05.372Z,9.37
2022-12-22T03:09:26.060Z,8.27
2022-12-22T03:14:46.683Z,8.93
2022-12-22T03:20:09.353Z,9.93
2022-12-22T03:25:30.318Z,8.33
2022-12-22T03:30:34.004Z,9.00
2022-12-22T03:35:39.868Z,8.43
2022-12-22T03:40:44.601Z,8.47
2022-12-22T03:46:05.820Z,9.67
2022-12-22T03:51:28.370Z,8.70
2022-12-22T03:56:31.690Z,7.47
2022-12-22T04:01:35.912Z,9.20
2022-12-22T04:06:40.989Z,8.60
2022-12-22T04:12:01.902Z,6.83
2022-12-22T04:17:05.790Z,11.30
2022-12-22T04:22:10.498Z,7.93
2022-12-22T04:27:13.859Z,8.30
2022-12-22T04:32:17.363Z,5.93
2022-12-22T04:37:22.082Z,8.40
2022-12-22T04:42:25.906Z,8.20
2022-12-22T04:47:29.402Z,6.83
2022-12-22T04:52:34.105Z,6.27
2022-12-22T04:57:40.818Z,5.60
2022-12-22T05:02:44.674Z,6.93
2022-12-22T05:07:49.610Z,5.17
2022-12-22T05:12:55.666Z,4.67
2022-12-22T05:17:59.639Z,5.73
2022-12-22T05:23:04.766Z,4.07
2022-12-22T05:28:08.262Z,3.80
2022-12-22T05:33:11.579Z,3.67
2022-12-22T05:38:16.628Z,4.43
2022-12-22T05:43:19.948Z,3.77
2022-12-22T05:48:29.484Z,4.33
2022-12-22T05:53:37.092Z,3.83
2022-12-22T05:58:40.576Z,3.57
2022-12-22T06:03:43.938Z,3.70
2022-12-22T06:08:48.719Z,2.77
2022-12-22T06:13:52.082Z,5.50
2022-12-22T06:18:55.495Z,2.37
2022-12-22T06:24:00.122Z,2.50
2022-12-22T06:29:03.372Z,2.07
2022-12-22T06:34:06.910Z,1.90
2022-12-22T06:39:11.623Z,1.77
2022-12-22T06:44:15.107Z,1.73
2022-12-22T06:49:18.468Z,1.83
2022-12-22T06:54:26.277Z,1.77
2022-12-22T06:59:30.211Z,1.60
2022-12-22T07:04:33.445Z,1.40
2022-12-22T07:09:38.061Z,1.37
2022-12-22T07:14:41.357Z,1.50
2022-12-22T07:19:45.046Z,1.50
2022-12-22T07:24:50.426Z,1.40
2022-12-22T07:29:53.782Z,1.63
2022-12-22T07:35:01.461Z,1.70
2022-12-22T07:40:10.879Z,1.50
2022-12-22T07:45:14.440Z,2.17
2022-12-22T07:50:28.927Z,1.70
2022-12-22T07:55:36.699Z,1.70
2022-12-22T08:00:40.056Z,1.10
2022-12-22T08:05:43.749Z,1.53
2022-12-22T08:10:48.840Z,1.57
2022-12-22T08:15:52.145Z,1.57
2022-12-22T08:20:55.542Z,1.40
2022-12-22T08:26:01.945Z,1.60
2022-12-22T08:31:05.614Z,1.80
2022-12-22T08:36:09.675Z,1.57
2022-12-22T08:41:15.172Z,2.07
2022-12-22T08:46:18.940Z,1.20
2022-12-22T08:51:22.170Z,1.50
2022-12-22T08:56:26.967Z,1.37
2022-12-22T09:01:30.819Z,1.53
2022-12-22T09:06:40.413Z,1.90
2022-12-22T09:11:45.852Z,1.60
2022-12-22T09:16:50.573Z,2.13
2022-12-22T09:21:54.089Z,1.80
2022-12-22T09:26:58.913Z,1.97
2022-12-22T09:32:03.852Z,2.07
2022-12-22T09:37:07.574Z,2.10
2022-12-22T09:42:14.261Z,1.50
2022-12-22T09:47:19.647Z,1.47
2022-12-22T09:52:25.502Z,1.67
2022-12-22T09:57:31.845Z,1.47
2022-12-22T10:02:39.199Z,1.70
2022-12-22T10:07:43.763Z,2.30
2022-12-22T10:12:51.095Z,1.30
2022-12-22T10:17:55.543Z,1.27
2022-12-22T10:23:00.088Z,1.60
2022-12-22T10:28:07.964Z,4.87
2022-12-22T10:33:14.078Z,4.17
2022-12-22T10:38:21.573Z,1.33
2022-12-22T10:43:28.592Z,3.27
2022-12-22T10:48:33.972Z,3.13
2022-12-22T10:53:45.827Z,2.90
2022-12-22T10:58:51.610Z,1.53
2022-12-22T11:03:55.161Z,1.97
2022-12-22T11:09:31.425Z,1.30
2022-12-22T11:14:28.970Z,1.63
2022-12-22T11:19:43.177Z,1.50
2022-12-22T11:24:52.716Z,1.33
2022-12-22T11:30:04.771Z,2.60
2022-12-22T11:35:14.663Z,1.90
2022-12-22T11:40:22.457Z,1.90
2022-12-22T11:45:43.484Z,3.90
2022-12-22T11:51:02.302Z,3.30
2022-12-22T11:56:20.055Z,1.70
2022-12-22T12:01:35.839Z,3.47
2022-12-22T12:06:45.338Z,1.40
2022-12-22T12:11:52.451Z,2.60
2022-12-22T12:16:59.902Z,1.67
2022-12-22T12:22:05.168Z,1.53
2022-12-22T12:27:16.624Z,1.60
2022-12-22T12:32:24.067Z,2.57
2022-12-22T12:37:30.680Z,1.70
2022-12-22T12:42:35.403Z,1.87
2022-12-22T12:47:40.278Z,2.47
2022-12-22T12:53:13.761Z,2.30
2022-12-22T12:58:38.841Z,2.20
2022-12-22T13:14:57.835Z,2.00
2022-12-22T13:20:03.360Z,4.27
2022-12-22T13:25:07.289Z,2.40
2022-12-22T13:30:14.572Z,1.90
2022-12-22T13:35:44.626Z,1.80
2022-12-22T13:40:45.276Z,1.80
2022-12-22T13:45:50.326Z,1.70
2022-12-22T13:50:56.445Z,1.33
2022-12-22T13:56:00.115Z,1.67
2022-12-22T14:01:05.210Z,1.93
2022-12-22T14:06:21.550Z,1.90
2022-12-22T14:11:24.959Z,2.70
2022-12-22T14:16:28.348Z,13.20
2022-12-22T14:21:33.567Z,3.57
2022-12-22T14:26:37.797Z,3.13
2022-12-22T14:31:52.554Z,2.90
2022-12-22T14:37:00.800Z,2.10
2022-12-22T14:42:05.425Z,1.87
2022-12-22T14:47:17.425Z,2.80
2022-12-22T14:52:24.375Z,2.00
2022-12-22T14:57:31.488Z,2.40
2022-12-22T15:02:39.445Z,2.80
2022-12-22T15:08:07.416Z,2.37
2022-12-22T15:13:14.308Z,2.13
2022-12-22T15:18:17.795Z,3.03
2022-12-22T15:23:22.731Z,2.40
2022-12-22T15:28:26.197Z,3.00
2022-12-22T15:33:30.873Z,2.20
2022-12-22T15:38:38.917Z,2.13
2022-12-22T15:43:59.101Z,2.63
2022-12-22T15:49:03.019Z,2.27
2022-12-22T15:54:08.874Z,2.23
2022-12-22T15:59:17.684Z,2.87
2022-12-22T16:04:24.031Z,2.47
2022-12-22T16:09:32.938Z,1.97
2022-12-22T16:14:40.626Z,2.70
2022-12-22T16:19:48.575Z,2.27
2022-12-22T16:24:53.426Z,2.17
2022-12-22T16:29:56.924Z,2.40
2022-12-22T16:35:02.375Z,2.17
2022-12-22T16:40:08.339Z,2.23
2022-12-22T16:45:16.856Z,2.57
2022-12-22T16:50:22.223Z,2.27
2022-12-22T16:55:27.126Z,2.67
2022-12-22T17:00:33.393Z,2.70
2022-12-22T17:05:43.952Z,2.00
2022-12-22T17:10:49.641Z,2.23
2022-12-22T17:15:53.040Z,2.87
2022-12-22T17:20:57.752Z,1.93
2022-12-22T17:26:03.873Z,5.60
2022-12-22T17:31:08.639Z,2.50
2022-12-22T17:36:18.681Z,2.70
2022-12-22T17:41:24.455Z,2.50
2022-12-22T17:46:28.557Z,3.10
2022-12-22T17:51:31.965Z,2.93
2022-12-22T17:56:36.766Z,2.80
2022-12-22T18:01:41.286Z,3.20
2022-12-22T18:06:44.779Z,3.40
2022-12-22T18:11:49.563Z,3.30
2022-12-22T18:16:52.932Z,3.77
2022-12-22T18:21:56.268Z,2.93
2022-12-22T18:27:01.753Z,2.67
2022-12-22T18:32:05.516Z,3.90
2022-12-22T18:37:13.573Z,3.83
2022-12-22T18:42:22.314Z,3.83
2022-12-22T18:47:25.664Z,4.10
2022-12-22T18:52:31.028Z,6.17
2022-12-22T18:57:36.063Z,5.30
2022-12-22T19:02:39.557Z,5.70
2022-12-22T19:07:42.921Z,7.13
2022-12-22T19:12:48.724Z,3.20
2022-12-22T19:17:52.835Z,7.63
2022-12-22T19:22:56.358Z,18.77
2022-12-22T19:28:06.251Z,2.90
2022-12-22T19:33:11.881Z,3.43
2022-12-22T19:38:19.946Z,4.70
2022-12-22T19:43:24.826Z,3.87
2022-12-22T19:48:28.464Z,4.13
2022-12-22T19:53:31.771Z,3.90
2022-12-22T19:58:38.986Z,5.00
2022-12-22T20:03:42.256Z,4.33
2022-12-22T20:08:45.706Z,3.93
2022-12-22T20:13:51.333Z,4.77
2022-12-22T20:18:55.176Z,3.60
2022-12-22T20:24:00.494Z,4.17
2022-12-22T20:29:05.413Z,3.30
2022-12-22T20:34:10.196Z,3.50
2022-12-22T20:39:16.453Z,3.07
2022-12-22T20:44:21.395Z,5.90
2022-12-22T20:49:25.166Z,3.20
2022-12-22T20:54:28.436Z,2.77
2022-12-22T20:59:33.057Z,2.40
2022-12-22T21:04:36.935Z,2.97
2022-12-22T21:09:41.648Z,1.77
2022-12-22T21:14:47.690Z,3.27
2022-12-22T21:19:50.992Z,2.37
2022-12-22T21:24:54.321Z,2.10
2022-12-22T21:29:58.923Z,2.17
2022-12-22T21:35:07.771Z,2.40
2022-12-22T21:40:17.467Z,2.83
2022-12-22T21:45:22.922Z,2.00
2022-12-22T21:50:27.106Z,3.10
2022-12-22T21:55:31.087Z,2.50
2022-12-22T22:00:35.998Z,3.87
2022-12-22T22:05:40.008Z,3.17
2022-12-22T22:10:44.365Z,2.53
2022-12-22T22:15:49.095Z,2.67
2022-12-22T22:20:52.335Z,2.90
2022-12-22T22:25:58.112Z,2.90
2022-12-22T22:31:03.105Z,2.03
2022-12-22T22:36:07.329Z,3.50
2022-12-22T22:41:10.906Z,2.10
2022-12-22T22:46:16.919Z,2.30
2022-12-22T22:51:20.239Z,2.60
2022-12-22T22:56:23.566Z,2.03
2022-12-22T23:01:28.356Z,2.60
2022-12-22T23:06:31.780Z,2.17
2022-12-22T23:11:35.210Z,2.03
2022-12-22T23:16:40.134Z,1.97
2022-12-22T23:21:43.873Z,1.27
2022-12-22T23:26:47.298Z,1.30
2022-12-22T23:31:52.027Z,1.30
2022-12-22T23:36:55.555Z,1.40
2022-12-22T23:41:58.914Z,0.87
2022-12-22T23:47:03.710Z,1.13
2022-12-22T23:52:07.113Z,1.30
2022-12-22T23:57:10.587Z,1.30
